sensor_id;sensor_type;location;lat;lon;timestamp;P1;durP1;ratioP1;P2;durP2;ratioP2
17864;SDS011;9058;52.018;4.202;2023-06-22T00:02:24;45.65;;;28.48;;
17864;SDS011;9058;52.018;4.202;2023-06-22T00:04:51;43.22;;;27.02;;
17864;SDS011;9058;52.018;4.202;2023-06-22T00:07:18;43.35;;;27.70;;
17864;SDS011;9058;52.018;4.202;2023-06-22T00:09:45;44.47;;;28.25;;
17864;SDS011;9058;52.018;4.202;2023-06-22T00:12:11;40.47;;;27.15;;
17864;SDS011;9058;52.018;4.202;2023-06-22T00:14:38;40.10;;;26.75;;
17864;SDS011;9058;52.018;4.202;2023-06-22T00:17:06;41.67;;;28.00;;
17864;SDS011;9058;52.018;4.202;2023-06-22T00:19:32;38.70;;;25.80;;
17864;SDS011;9058;52.018;4.202;2023-06-22T00:22:05;39.95;;;25.85;;
17864;SDS011;9058;52.018;4.202;2023-06-22T00:24:31;39.20;;;25.38;;
17864;SDS011;9058;52.018;4.202;2023-06-22T00:26:58;35.55;;;24.50;;
17864;SDS011;9058;52.018;4.202;2023-06-22T00:29:25;37.55;;;25.33;;
17864;SDS011;9058;52.018;4.202;2023-06-22T00:31:51;35.63;;;24.05;;
17864;SDS011;9058;52.018;4.202;2023-06-22T00:34:19;40.63;;;24.70;;
17864;SDS011;9058;52.018;4.202;2023-06-22T00:36:46;37.38;;;24.90;;
17864;SDS011;9058;52.018;4.202;2023-06-22T00:39:13;36.80;;;24.40;;
17864;SDS011;9058;52.018;4.202;2023-06-22T00:41:40;33.03;;;23.50;;
17864;SDS011;9058;52.018;4.202;2023-06-22T00:44:07;33.67;;;23.45;;
17864;SDS011;9058;52.018;4.202;2023-06-22T00:46:34;35.88;;;23.63;;
17864;SDS011;9058;52.018;4.202;2023-06-22T00:49:01;34.15;;;24.45;;
17864;SDS011;9058;52.018;4.202;2023-06-22T00:51:32;34.47;;;24.00;;
17864;SDS011;9058;52.018;4.202;2023-06-22T00:53:59;36.08;;;24.35;;
17864;SDS011;9058;52.018;4.202;2023-06-22T00:56:25;35.17;;;24.30;;
17864;SDS011;9058;52.018;4.202;2023-06-22T00:58:55;42.28;;;26.27;;
17864;SDS011;9058;52.018;4.202;2023-06-22T01:01:22;39.10;;;26.45;;
17864;SDS011;9058;52.018;4.202;2023-06-22T01:03:49;42.20;;;27.05;;
17864;SDS011;9058;52.018;4.202;2023-06-22T01:06:19;38.28;;;27.25;;
17864;SDS011;9058;52.018;4.202;2023-06-22T01:08:53;42.75;;;27.27;;
17864;SDS011;9058;52.018;4.202;2023-06-22T01:11:24;45.83;;;27.63;;
17864;SDS011;9058;52.018;4.202;2023-06-22T01:13:53;46.97;;;27.60;;
17864;SDS011;9058;52.018;4.202;2023-06-22T01:16:23;46.80;;;28.10;;
17864;SDS011;9058;52.018;4.202;2023-06-22T01:18:53;41.30;;;26.77;;
17864;SDS011;9058;52.018;4.202;2023-06-22T01:21:21;44.85;;;29.33;;
17864;SDS011;9058;52.018;4.202;2023-06-22T01:23:56;48.88;;;29.17;;
17864;SDS011;9058;52.018;4.202;2023-06-22T01:26:28;48.05;;;28.65;;
17864;SDS011;9058;52.018;4.202;2023-06-22T01:29:01;47.17;;;27.58;;
17864;SDS011;9058;52.018;4.202;2023-06-22T01:31:29;44.72;;;28.80;;
17864;SDS011;9058;52.018;4.202;2023-06-22T01:33:58;49.60;;;28.98;;
17864;SDS011;9058;52.018;4.202;2023-06-22T01:36:26;46.15;;;28.77;;
17864;SDS011;9058;52.018;4.202;2023-06-22T01:38:53;51.17;;;30.50;;
17864;SDS011;9058;52.018;4.202;2023-06-22T01:41:19;49.88;;;30.83;;
17864;SDS011;9058;52.018;4.202;2023-06-22T01:43:46;47.88;;;28.38;;
17864;SDS011;9058;52.018;4.202;2023-06-22T01:46:14;49.33;;;28.75;;
17864;SDS011;9058;52.018;4.202;2023-06-22T01:48:44;45.80;;;28.42;;
17864;SDS011;9058;52.018;4.202;2023-06-22T01:51:10;56.72;;;32.00;;
17864;SDS011;9058;52.018;4.202;2023-06-22T01:53:37;49.83;;;29.58;;
17864;SDS011;9058;52.018;4.202;2023-06-22T01:56:04;51.58;;;31.33;;
17864;SDS011;9058;52.018;4.202;2023-06-22T01:58:31;48.72;;;30.02;;
17864;SDS011;9058;52.018;4.202;2023-06-22T02:01:00;61.05;;;32.53;;
17864;SDS011;9058;52.018;4.202;2023-06-22T02:03:31;48.47;;;30.50;;
17864;SDS011;9058;52.018;4.202;2023-06-22T02:06:01;53.72;;;31.85;;
17864;SDS011;9058;52.018;4.202;2023-06-22T02:08:30;57.75;;;32.15;;
17864;SDS011;9058;52.018;4.202;2023-06-22T02:10:58;55.95;;;32.85;;
17864;SDS011;9058;52.018;4.202;2023-06-22T02:13:26;55.25;;;30.77;;
17864;SDS011;9058;52.018;4.202;2023-06-22T02:15:55;60.15;;;33.42;;
17864;SDS011;9058;52.018;4.202;2023-06-22T02:18:22;67.60;;;35.08;;
17864;SDS011;9058;52.018;4.202;2023-06-22T02:20:52;65.10;;;35.33;;
17864;SDS011;9058;52.018;4.202;2023-06-22T02:23:18;58.80;;;33.00;;
17864;SDS011;9058;52.018;4.202;2023-06-22T02:25:45;58.40;;;32.17;;
17864;SDS011;9058;52.018;4.202;2023-06-22T02:28:12;65.85;;;35.78;;
17864;SDS011;9058;52.018;4.202;2023-06-22T02:30:39;66.07;;;34.28;;
17864;SDS011;9058;52.018;4.202;2023-06-22T02:33:05;57.10;;;33.33;;
17864;SDS011;9058;52.018;4.202;2023-06-22T02:35:32;62.70;;;34.70;;
17864;SDS011;9058;52.018;4.202;2023-06-22T02:38:02;68.35;;;35.92;;
17864;SDS011;9058;52.018;4.202;2023-06-22T02:40:29;64.57;;;34.88;;
17864;SDS011;9058;52.018;4.202;2023-06-22T02:42:55;69.20;;;35.80;;
17864;SDS011;9058;52.018;4.202;2023-06-22T02:45:26;64.97;;;33.88;;
17864;SDS011;9058;52.018;4.202;2023-06-22T02:47:53;66.95;;;34.05;;
17864;SDS011;9058;52.018;4.202;2023-06-22T02:50:19;70.18;;;36.45;;
17864;SDS011;9058;52.018;4.202;2023-06-22T02:52:46;68.28;;;35.03;;
17864;SDS011;9058;52.018;4.202;2023-06-22T02:55:14;63.92;;;33.05;;
17864;SDS011;9058;52.018;4.202;2023-06-22T02:57:41;63.35;;;33.33;;
17864;SDS011;9058;52.018;4.202;2023-06-22T03:00:10;60.55;;;32.80;;
17864;SDS011;9058;52.018;4.202;2023-06-22T03:02:42;67.05;;;33.78;;
17864;SDS011;9058;52.018;4.202;2023-06-22T03:05:08;63.92;;;32.92;;
17864;SDS011;9058;52.018;4.202;2023-06-22T03:07:38;66.65;;;33.63;;
17864;SDS011;9058;52.018;4.202;2023-06-22T03:10:05;67.07;;;33.13;;
17864;SDS011;9058;52.018;4.202;2023-06-22T03:12:33;68.93;;;33.15;;
17864;SDS011;9058;52.018;4.202;2023-06-22T03:15:00;49.53;;;30.13;;
17864;SDS011;9058;52.018;4.202;2023-06-22T03:17:27;56.30;;;32.35;;
17864;SDS011;9058;52.018;4.202;2023-06-22T03:19:54;61.17;;;32.15;;
17864;SDS011;9058;52.018;4.202;2023-06-22T03:22:20;63.10;;;32.75;;
17864;SDS011;9058;52.018;4.202;2023-06-22T03:24:46;58.53;;;32.25;;
17864;SDS011;9058;52.018;4.202;2023-06-22T03:27:13;62.25;;;32.38;;
17864;SDS011;9058;52.018;4.202;2023-06-22T03:29:40;56.83;;;32.72;;
17864;SDS011;9058;52.018;4.202;2023-06-22T03:32:07;56.30;;;33.17;;
17864;SDS011;9058;52.018;4.202;2023-06-22T03:34:34;54.83;;;31.15;;
17864;SDS011;9058;52.018;4.202;2023-06-22T03:37:02;55.25;;;32.58;;
17864;SDS011;9058;52.018;4.202;2023-06-22T03:39:29;53.88;;;32.15;;
17864;SDS011;9058;52.018;4.202;2023-06-22T03:41:56;59.17;;;33.65;;
17864;SDS011;9058;52.018;4.202;2023-06-22T03:44:23;55.35;;;32.60;;
17864;SDS011;9058;52.018;4.202;2023-06-22T03:46:51;53.08;;;31.95;;
17864;SDS011;9058;52.018;4.202;2023-06-22T03:49:17;51.80;;;32.10;;
17864;SDS011;9058;52.018;4.202;2023-06-22T03:51:44;54.70;;;32.00;;
17864;SDS011;9058;52.018;4.202;2023-06-22T03:54:10;50.90;;;31.98;;
17864;SDS011;9058;52.018;4.202;2023-06-22T03:56:36;51.63;;;32.38;;
17864;SDS011;9058;52.018;4.202;2023-06-22T03:59:03;52.40;;;32.58;;
17864;SDS011;9058;52.018;4.202;2023-06-22T04:01:29;55.95;;;32.15;;
17864;SDS011;9058;52.018;4.202;2023-06-22T04:03:57;55.50;;;33.13;;
17864;SDS011;9058;52.018;4.202;2023-06-22T04:06:24;52.25;;;32.35;;
17864;SDS011;9058;52.018;4.202;2023-06-22T04:08:50;53.63;;;32.20;;
17864;SDS011;9058;52.018;4.202;2023-06-22T04:11:17;58.03;;;32.95;;
17864;SDS011;9058;52.018;4.202;2023-06-22T04:13:44;50.63;;;31.92;;
17864;SDS011;9058;52.018;4.202;2023-06-22T04:16:10;58.55;;;32.92;;
17864;SDS011;9058;52.018;4.202;2023-06-22T04:18:37;58.17;;;31.85;;
17864;SDS011;9058;52.018;4.202;2023-06-22T04:21:05;57.42;;;33.80;;
17864;SDS011;9058;52.018;4.202;2023-06-22T04:23:32;53.80;;;34.45;;
17864;SDS011;9058;52.018;4.202;2023-06-22T04:25:58;56.28;;;32.58;;
17864;SDS011;9058;52.018;4.202;2023-06-22T04:28:25;49.67;;;32.78;;
17864;SDS011;9058;52.018;4.202;2023-06-22T04:30:53;50.50;;;32.45;;
17864;SDS011;9058;52.018;4.202;2023-06-22T04:33:23;56.63;;;33.80;;
17864;SDS011;9058;52.018;4.202;2023-06-22T04:35:50;49.92;;;32.17;;
17864;SDS011;9058;52.018;4.202;2023-06-22T04:38:18;56.28;;;34.20;;
17864;SDS011;9058;52.018;4.202;2023-06-22T04:40:46;52.53;;;32.60;;
17864;SDS011;9058;52.018;4.202;2023-06-22T04:43:13;50.10;;;31.73;;
17864;SDS011;9058;52.018;4.202;2023-06-22T04:45:40;48.75;;;31.45;;
17864;SDS011;9058;52.018;4.202;2023-06-22T04:48:07;50.13;;;34.13;;
17864;SDS011;9058;52.018;4.202;2023-06-22T04:50:34;50.28;;;33.30;;
17864;SDS011;9058;52.018;4.202;2023-06-22T04:53:00;46.25;;;31.90;;
17864;SDS011;9058;52.018;4.202;2023-06-22T04:55:31;46.88;;;32.70;;
17864;SDS011;9058;52.018;4.202;2023-06-22T04:57:58;50.10;;;32.25;;
17864;SDS011;9058;52.018;4.202;2023-06-22T05:00:29;44.63;;;30.90;;
17864;SDS011;9058;52.018;4.202;2023-06-22T05:02:56;44.05;;;29.95;;
17864;SDS011;9058;52.018;4.202;2023-06-22T05:05:23;43.67;;;31.08;;
17864;SDS011;9058;52.018;4.202;2023-06-22T05:07:50;37.40;;;28.45;;
17864;SDS011;9058;52.018;4.202;2023-06-22T05:10:18;40.50;;;29.08;;
17864;SDS011;9058;52.018;4.202;2023-06-22T05:12:46;37.97;;;27.95;;
17864;SDS011;9058;52.018;4.202;2023-06-22T05:15:13;32.45;;;25.92;;
17864;SDS011;9058;52.018;4.202;2023-06-22T05:17:40;36.67;;;25.60;;
17864;SDS011;9058;52.018;4.202;2023-06-22T05:20:08;34.97;;;25.75;;
17864;SDS011;9058;52.018;4.202;2023-06-22T05:22:35;34.70;;;24.90;;
17864;SDS011;9058;52.018;4.202;2023-06-22T05:25:01;32.67;;;22.88;;
17864;SDS011;9058;52.018;4.202;2023-06-22T05:27:28;31.23;;;24.05;;
17864;SDS011;9058;52.018;4.202;2023-06-22T05:29:55;32.92;;;22.70;;
17864;SDS011;9058;52.018;4.202;2023-06-22T05:32:22;33.47;;;21.63;;
17864;SDS011;9058;52.018;4.202;2023-06-22T05:34:48;27.05;;;20.70;;
17864;SDS011;9058;52.018;4.202;2023-06-22T05:37:16;29.27;;;21.15;;
17864;SDS011;9058;52.018;4.202;2023-06-22T05:39:42;29.80;;;22.02;;
17864;SDS011;9058;52.018;4.202;2023-06-22T05:42:09;26.05;;;19.55;;
17864;SDS011;9058;52.018;4.202;2023-06-22T05:44:35;26.35;;;18.88;;
17864;SDS011;9058;52.018;4.202;2023-06-22T05:47:07;25.67;;;18.90;;
17864;SDS011;9058;52.018;4.202;2023-06-22T05:49:33;24.02;;;18.40;;
17864;SDS011;9058;52.018;4.202;2023-06-22T05:52:00;24.98;;;18.52;;
17864;SDS011;9058;52.018;4.202;2023-06-22T05:54:27;22.75;;;16.95;;
17864;SDS011;9058;52.018;4.202;2023-06-22T05:56:54;22.77;;;17.00;;
17864;SDS011;9058;52.018;4.202;2023-06-22T05:59:20;21.10;;;16.38;;
17864;SDS011;9058;52.018;4.202;2023-06-22T06:01:47;20.08;;;15.32;;
17864;SDS011;9058;52.018;4.202;2023-06-22T06:04:18;22.73;;;16.35;;
17864;SDS011;9058;52.018;4.202;2023-06-22T06:06:44;19.35;;;13.80;;
17864;SDS011;9058;52.018;4.202;2023-06-22T06:09:12;20.10;;;15.60;;
17864;SDS011;9058;52.018;4.202;2023-06-22T06:11:38;20.05;;;14.73;;
17864;SDS011;9058;52.018;4.202;2023-06-22T06:14:05;16.30;;;13.70;;
17864;SDS011;9058;52.018;4.202;2023-06-22T06:16:32;16.27;;;13.27;;
17864;SDS011;9058;52.018;4.202;2023-06-22T06:18:58;17.75;;;13.63;;
17864;SDS011;9058;52.018;4.202;2023-06-22T06:21:26;14.98;;;12.43;;
17864;SDS011;9058;52.018;4.202;2023-06-22T06:23:53;18.42;;;13.27;;
17864;SDS011;9058;52.018;4.202;2023-06-22T06:26:19;14.77;;;12.18;;
17864;SDS011;9058;52.018;4.202;2023-06-22T06:28:55;14.18;;;11.18;;
17864;SDS011;9058;52.018;4.202;2023-06-22T06:31:21;15.70;;;11.25;;
17864;SDS011;9058;52.018;4.202;2023-06-22T06:33:49;15.45;;;10.93;;
17864;SDS011;9058;52.018;4.202;2023-06-22T06:36:17;8.50;;;7.10;;
17864;SDS011;9058;52.018;4.202;2023-06-22T06:38:45;10.98;;;7.55;;
17864;SDS011;9058;52.018;4.202;2023-06-22T06:41:12;11.48;;;8.18;;
17864;SDS011;9058;52.018;4.202;2023-06-22T06:43:39;10.38;;;7.70;;
17864;SDS011;9058;52.018;4.202;2023-06-22T06:46:05;11.73;;;7.75;;
17864;SDS011;9058;52.018;4.202;2023-06-22T06:48:31;8.85;;;6.85;;
17864;SDS011;9058;52.018;4.202;2023-06-22T06:50:58;8.55;;;7.65;;
17864;SDS011;9058;52.018;4.202;2023-06-22T06:53:25;8.73;;;7.40;;
17864;SDS011;9058;52.018;4.202;2023-06-22T06:55:53;12.23;;;8.18;;
17864;SDS011;9058;52.018;4.202;2023-06-22T06:58:20;8.35;;;6.80;;
17864;SDS011;9058;52.018;4.202;2023-06-22T07:00:48;10.27;;;7.05;;
17864;SDS011;9058;52.018;4.202;2023-06-22T07:03:15;6.78;;;6.03;;
17864;SDS011;9058;52.018;4.202;2023-06-22T07:05:42;7.85;;;6.38;;
17864;SDS011;9058;52.018;4.202;2023-06-22T07:08:09;9.02;;;6.80;;
17864;SDS011;9058;52.018;4.202;2023-06-22T07:10:36;8.23;;;6.10;;
17864;SDS011;9058;52.018;4.202;2023-06-22T07:13:05;6.85;;;5.95;;
17864;SDS011;9058;52.018;4.202;2023-06-22T07:15:32;8.25;;;6.32;;
17864;SDS011;9058;52.018;4.202;2023-06-22T07:17:58;8.20;;;6.68;;
17864;SDS011;9058;52.018;4.202;2023-06-22T07:20:24;8.40;;;6.28;;
17864;SDS011;9058;52.018;4.202;2023-06-22T07:22:51;9.48;;;7.68;;
17864;SDS011;9058;52.018;4.202;2023-06-22T07:25:17;7.32;;;6.43;;
17864;SDS011;9058;52.018;4.202;2023-06-22T07:27:44;7.78;;;6.30;;
17864;SDS011;9058;52.018;4.202;2023-06-22T07:30:13;9.10;;;6.25;;
17864;SDS011;9058;52.018;4.202;2023-06-22T07:32:40;7.47;;;6.07;;
17864;SDS011;9058;52.018;4.202;2023-06-22T07:35:06;6.72;;;5.80;;
17864;SDS011;9058;52.018;4.202;2023-06-22T07:37:33;6.88;;;5.95;;
17864;SDS011;9058;52.018;4.202;2023-06-22T07:40:00;9.38;;;6.20;;
17864;SDS011;9058;52.018;4.202;2023-06-22T07:42:31;9.10;;;6.10;;
17864;SDS011;9058;52.018;4.202;2023-06-22T07:44:58;8.98;;;6.45;;
17864;SDS011;9058;52.018;4.202;2023-06-22T07:47:25;11.02;;;5.60;;
17864;SDS011;9058;52.018;4.202;2023-06-22T07:49:53;8.05;;;6.00;;
17864;SDS011;9058;52.018;4.202;2023-06-22T07:52:22;8.50;;;6.32;;
17864;SDS011;9058;52.018;4.202;2023-06-22T07:54:49;7.15;;;5.60;;
17864;SDS011;9058;52.018;4.202;2023-06-22T07:57:16;6.82;;;4.75;;
17864;SDS011;9058;52.018;4.202;2023-06-22T07:59:42;6.85;;;4.80;;
17864;SDS011;9058;52.018;4.202;2023-06-22T08:02:08;6.30;;;5.10;;
17864;SDS011;9058;52.018;4.202;2023-06-22T08:04:36;7.88;;;6.13;;
17864;SDS011;9058;52.018;4.202;2023-06-22T08:07:03;6.18;;;4.38;;
17864;SDS011;9058;52.018;4.202;2023-06-22T08:09:29;7.10;;;4.47;;
17864;SDS011;9058;52.018;4.202;2023-06-22T08:11:56;12.82;;;9.68;;
17864;SDS011;9058;52.018;4.202;2023-06-22T08:14:23;10.20;;;8.32;;
17864;SDS011;9058;52.018;4.202;2023-06-22T08:16:49;6.80;;;4.47;;
17864;SDS011;9058;52.018;4.202;2023-06-22T08:19:16;7.15;;;4.85;;
17864;SDS011;9058;52.018;4.202;2023-06-22T08:21:44;6.78;;;4.88;;
17864;SDS011;9058;52.018;4.202;2023-06-22T08:24:10;17.05;;;13.85;;
17864;SDS011;9058;52.018;4.202;2023-06-22T08:26:36;7.18;;;6.07;;
17864;SDS011;9058;52.018;4.202;2023-06-22T08:29:03;6.50;;;5.13;;
17864;SDS011;9058;52.018;4.202;2023-06-22T08:31:29;8.82;;;5.40;;
17864;SDS011;9058;52.018;4.202;2023-06-22T08:33:56;16.30;;;11.70;;
17864;SDS011;9058;52.018;4.202;2023-06-22T08:36:22;18.48;;;13.27;;
17864;SDS011;9058;52.018;4.202;2023-06-22T08:38:50;19.15;;;13.68;;
17864;SDS011;9058;52.018;4.202;2023-06-22T08:41:17;13.52;;;11.38;;
17864;SDS011;9058;52.018;4.202;2023-06-22T08:43:44;13.75;;;10.75;;
17864;SDS011;9058;52.018;4.202;2023-06-22T08:46:10;31.38;;;16.55;;
17864;SDS011;9058;52.018;4.202;2023-06-22T08:48:36;22.67;;;17.17;;
17864;SDS011;9058;52.018;4.202;2023-06-22T08:51:04;24.92;;;16.75;;
17864;SDS011;9058;52.018;4.202;2023-06-22T08:53:30;27.83;;;17.02;;
17864;SDS011;9058;52.018;4.202;2023-06-22T08:55:58;30.05;;;19.15;;
17864;SDS011;9058;52.018;4.202;2023-06-22T08:58:24;21.90;;;16.30;;
17864;SDS011;9058;52.018;4.202;2023-06-22T09:00:51;24.13;;;16.85;;
17864;SDS011;9058;52.018;4.202;2023-06-22T09:03:17;20.90;;;15.55;;
17864;SDS011;9058;52.018;4.202;2023-06-22T09:05:45;16.83;;;14.05;;
17864;SDS011;9058;52.018;4.202;2023-06-22T09:08:11;15.57;;;12.93;;
17864;SDS011;9058;52.018;4.202;2023-06-22T09:10:38;18.85;;;15.35;;
17864;SDS011;9058;52.018;4.202;2023-06-22T09:13:05;28.77;;;17.38;;
17864;SDS011;9058;52.018;4.202;2023-06-22T09:15:32;21.08;;;16.95;;
17864;SDS011;9058;52.018;4.202;2023-06-22T09:17:59;26.48;;;15.82;;
17864;SDS011;9058;52.018;4.202;2023-06-22T09:20:25;24.38;;;15.18;;
17864;SDS011;9058;52.018;4.202;2023-06-22T09:22:52;27.50;;;17.80;;
17864;SDS011;9058;52.018;4.202;2023-06-22T09:25:18;23.58;;;16.63;;
17864;SDS011;9058;52.018;4.202;2023-06-22T09:27:46;24.27;;;17.10;;
17864;SDS011;9058;52.018;4.202;2023-06-22T09:30:14;18.65;;;16.67;;
17864;SDS011;9058;52.018;4.202;2023-06-22T09:32:40;19.58;;;16.20;;
17864;SDS011;9058;52.018;4.202;2023-06-22T09:35:07;23.00;;;19.52;;
17864;SDS011;9058;52.018;4.202;2023-06-22T09:37:34;22.75;;;20.30;;
17864;SDS011;9058;52.018;4.202;2023-06-22T09:40:01;23.98;;;21.05;;
17864;SDS011;9058;52.018;4.202;2023-06-22T09:42:33;44.50;;;26.00;;
17864;SDS011;9058;52.018;4.202;2023-06-22T09:45:00;37.65;;;25.08;;
17864;SDS011;9058;52.018;4.202;2023-06-22T09:47:28;25.23;;;21.33;;
17864;SDS011;9058;52.018;4.202;2023-06-22T09:49:55;27.77;;;22.30;;
17864;SDS011;9058;52.018;4.202;2023-06-22T09:52:24;27.85;;;23.80;;
17864;SDS011;9058;52.018;4.202;2023-06-22T09:54:50;24.90;;;21.23;;
17864;SDS011;9058;52.018;4.202;2023-06-22T09:57:17;24.77;;;22.10;;
17864;SDS011;9058;52.018;4.202;2023-06-22T09:59:43;24.45;;;21.83;;
17864;SDS011;9058;52.018;4.202;2023-06-22T10:02:09;24.90;;;22.23;;
17864;SDS011;9058;52.018;4.202;2023-06-22T10:04:37;24.35;;;21.75;;
17864;SDS011;9058;52.018;4.202;2023-06-22T10:07:04;25.50;;;21.55;;
17864;SDS011;9058;52.018;4.202;2023-06-22T10:09:32;24.45;;;21.52;;
17864;SDS011;9058;52.018;4.202;2023-06-22T10:11:58;24.30;;;21.55;;
17864;SDS011;9058;52.018;4.202;2023-06-22T10:14:24;24.45;;;21.40;;
17864;SDS011;9058;52.018;4.202;2023-06-22T10:16:52;25.48;;;21.50;;
17864;SDS011;9058;52.018;4.202;2023-06-22T10:19:19;26.35;;;22.23;;
17864;SDS011;9058;52.018;4.202;2023-06-22T10:21:47;24.70;;;21.65;;
17864;SDS011;9058;52.018;4.202;2023-06-22T10:24:13;26.73;;;23.88;;
17864;SDS011;9058;52.018;4.202;2023-06-22T10:26:40;25.70;;;22.98;;
17864;SDS011;9058;52.018;4.202;2023-06-22T10:29:06;26.98;;;23.92;;
17864;SDS011;9058;52.018;4.202;2023-06-22T10:31:33;25.65;;;20.33;;
17864;SDS011;9058;52.018;4.202;2023-06-22T10:33:59;25.08;;;20.73;;
17864;SDS011;9058;52.018;4.202;2023-06-22T10:36:25;23.27;;;20.77;;
17864;SDS011;9058;52.018;4.202;2023-06-22T10:38:53;21.42;;;19.20;;
17864;SDS011;9058;52.018;4.202;2023-06-22T10:41:20;20.65;;;18.20;;
17864;SDS011;9058;52.018;4.202;2023-06-22T10:43:47;21.25;;;19.08;;
17864;SDS011;9058;52.018;4.202;2023-06-22T10:46:13;23.58;;;18.80;;
17864;SDS011;9058;52.018;4.202;2023-06-22T10:48:40;21.27;;;19.13;;
17864;SDS011;9058;52.018;4.202;2023-06-22T10:51:06;22.00;;;18.27;;
17864;SDS011;9058;52.018;4.202;2023-06-22T10:53:32;22.30;;;19.98;;
17864;SDS011;9058;52.018;4.202;2023-06-22T10:56:00;22.05;;;19.55;;
17864;SDS011;9058;52.018;4.202;2023-06-22T10:58:27;22.20;;;19.88;;
17864;SDS011;9058;52.018;4.202;2023-06-22T11:00:53;23.50;;;21.27;;
17864;SDS011;9058;52.018;4.202;2023-06-22T11:03:20;25.58;;;21.45;;
17864;SDS011;9058;52.018;4.202;2023-06-22T11:05:46;23.15;;;20.95;;
17864;SDS011;9058;52.018;4.202;2023-06-22T11:08:13;23.50;;;21.27;;
17864;SDS011;9058;52.018;4.202;2023-06-22T11:10:40;26.42;;;23.90;;
17864;SDS011;9058;52.018;4.202;2023-06-22T11:13:08;26.33;;;23.58;;
17864;SDS011;9058;52.018;4.202;2023-06-22T11:15:35;25.38;;;22.67;;
17864;SDS011;9058;52.018;4.202;2023-06-22T11:18:02;26.67;;;23.95;;
17864;SDS011;9058;52.018;4.202;2023-06-22T11:20:30;26.95;;;24.27;;
17864;SDS011;9058;52.018;4.202;2023-06-22T11:22:59;24.52;;;22.13;;
17864;SDS011;9058;52.018;4.202;2023-06-22T11:25:26;25.95;;;23.40;;
17864;SDS011;9058;52.018;4.202;2023-06-22T11:27:52;24.85;;;22.33;;
17864;SDS011;9058;52.018;4.202;2023-06-22T11:30:20;23.77;;;21.45;;
17864;SDS011;9058;52.018;4.202;2023-06-22T11:32:46;24.52;;;22.13;;
17864;SDS011;9058;52.018;4.202;2023-06-22T11:35:13;24.23;;;21.83;;
17864;SDS011;9058;52.018;4.202;2023-06-22T11:37:39;24.48;;;21.98;;
17864;SDS011;9058;52.018;4.202;2023-06-22T11:40:08;24.80;;;22.35;;
17864;SDS011;9058;52.018;4.202;2023-06-22T11:42:34;25.20;;;22.70;;
17864;SDS011;9058;52.018;4.202;2023-06-22T11:45:00;23.05;;;20.85;;
17864;SDS011;9058;52.018;4.202;2023-06-22T11:47:31;23.48;;;21.27;;
17864;SDS011;9058;52.018;4.202;2023-06-22T11:49:57;24.10;;;21.70;;
17864;SDS011;9058;52.018;4.202;2023-06-22T11:52:24;24.70;;;22.30;;
17864;SDS011;9058;52.018;4.202;2023-06-22T11:54:51;23.77;;;21.58;;
17864;SDS011;9058;52.018;4.202;2023-06-22T11:57:18;23.70;;;20.95;;
17864;SDS011;9058;52.018;4.202;2023-06-22T11:59:44;23.88;;;21.35;;
17864;SDS011;9058;52.018;4.202;2023-06-22T12:02:11;24.35;;;21.83;;
17864;SDS011;9058;52.018;4.202;2023-06-22T12:04:38;24.08;;;21.58;;
17864;SDS011;9058;52.018;4.202;2023-06-22T12:07:05;25.27;;;22.58;;
17864;SDS011;9058;52.018;4.202;2023-06-22T12:09:31;25.92;;;23.38;;
17864;SDS011;9058;52.018;4.202;2023-06-22T12:11:58;27.38;;;24.67;;
17864;SDS011;9058;52.018;4.202;2023-06-22T12:14:25;27.42;;;24.52;;
17864;SDS011;9058;52.018;4.202;2023-06-22T12:16:52;28.42;;;25.40;;
17864;SDS011;9058;52.018;4.202;2023-06-22T12:19:19;28.08;;;25.15;;
17864;SDS011;9058;52.018;4.202;2023-06-22T12:21:47;28.27;;;25.38;;
17864;SDS011;9058;52.018;4.202;2023-06-22T12:24:14;29.25;;;26.13;;
17864;SDS011;9058;52.018;4.202;2023-06-22T12:26:41;27.13;;;24.48;;
17864;SDS011;9058;52.018;4.202;2023-06-22T12:29:10;26.38;;;23.50;;
17864;SDS011;9058;52.018;4.202;2023-06-22T12:31:37;25.02;;;22.63;;
17864;SDS011;9058;52.018;4.202;2023-06-22T12:34:03;27.17;;;24.42;;
17864;SDS011;9058;52.018;4.202;2023-06-22T12:36:30;24.50;;;22.05;;
17864;SDS011;9058;52.018;4.202;2023-06-22T12:38:58;26.73;;;24.17;;
17864;SDS011;9058;52.018;4.202;2023-06-22T12:41:24;25.05;;;22.60;;
17864;SDS011;9058;52.018;4.202;2023-06-22T12:43:51;25.67;;;22.77;;
17864;SDS011;9058;52.018;4.202;2023-06-22T12:46:18;24.35;;;21.42;;
17864;SDS011;9058;52.018;4.202;2023-06-22T12:48:44;22.88;;;20.45;;
17864;SDS011;9058;52.018;4.202;2023-06-22T12:51:12;22.38;;;19.70;;
17864;SDS011;9058;52.018;4.202;2023-06-22T12:53:46;20.92;;;18.10;;
17864;SDS011;9058;52.018;4.202;2023-06-22T12:56:14;19.17;;;17.17;;
17864;SDS011;9058;52.018;4.202;2023-06-22T12:58:41;18.23;;;16.33;;
17864;SDS011;9058;52.018;4.202;2023-06-22T13:01:07;18.65;;;16.58;;
17864;SDS011;9058;52.018;4.202;2023-06-22T13:03:33;17.70;;;14.70;;
17864;SDS011;9058;52.018;4.202;2023-06-22T13:06:00;22.55;;;16.00;;
17864;SDS011;9058;52.018;4.202;2023-06-22T13:08:27;16.67;;;14.98;;
17864;SDS011;9058;52.018;4.202;2023-06-22T13:10:54;22.42;;;15.90;;
17864;SDS011;9058;52.018;4.202;2023-06-22T13:13:23;17.13;;;14.15;;
17864;SDS011;9058;52.018;4.202;2023-06-22T13:15:50;15.65;;;13.73;;
17864;SDS011;9058;52.018;4.202;2023-06-22T13:18:17;16.15;;;14.52;;
17864;SDS011;9058;52.018;4.202;2023-06-22T13:20:44;15.23;;;13.73;;
17864;SDS011;9058;52.018;4.202;2023-06-22T13:23:11;15.40;;;13.90;;
17864;SDS011;9058;52.018;4.202;2023-06-22T13:25:38;14.85;;;13.45;;
17864;SDS011;9058;52.018;4.202;2023-06-22T13:28:04;16.05;;;14.43;;
17864;SDS011;9058;52.018;4.202;2023-06-22T13:30:32;15.45;;;13.95;;
17864;SDS011;9058;52.018;4.202;2023-06-22T13:32:58;17.13;;;13.90;;
17864;SDS011;9058;52.018;4.202;2023-06-22T13:35:25;16.55;;;14.40;;
17864;SDS011;9058;52.018;4.202;2023-06-22T13:37:51;16.40;;;14.68;;
17864;SDS011;9058;52.018;4.202;2023-06-22T13:40:18;18.48;;;16.15;;
17864;SDS011;9058;52.018;4.202;2023-06-22T13:42:44;17.35;;;15.65;;
17864;SDS011;9058;52.018;4.202;2023-06-22T13:45:11;15.68;;;14.07;;
17864;SDS011;9058;52.018;4.202;2023-06-22T13:47:38;18.08;;;15.85;;
17864;SDS011;9058;52.018;4.202;2023-06-22T13:50:05;18.40;;;16.17;;
17864;SDS011;9058;52.018;4.202;2023-06-22T13:52:32;17.20;;;15.40;;
17864;SDS011;9058;52.018;4.202;2023-06-22T13:54:59;17.13;;;15.38;;
17864;SDS011;9058;52.018;4.202;2023-06-22T13:57:26;15.82;;;14.05;;
17864;SDS011;9058;52.018;4.202;2023-06-22T13:59:52;17.25;;;15.45;;
17864;SDS011;9058;52.018;4.202;2023-06-22T14:02:19;17.42;;;14.77;;
17864;SDS011;9058;52.018;4.202;2023-06-22T14:04:46;16.48;;;14.77;;
17864;SDS011;9058;52.018;4.202;2023-06-22T14:07:13;15.30;;;13.80;;
17864;SDS011;9058;52.018;4.202;2023-06-22T14:09:39;18.52;;;15.07;;
17864;SDS011;9058;52.018;4.202;2023-06-22T14:12:06;15.52;;;13.95;;
17864;SDS011;9058;52.018;4.202;2023-06-22T14:14:32;14.43;;;12.63;;
17864;SDS011;9058;52.018;4.202;2023-06-22T14:16:59;16.92;;;14.00;;
17864;SDS011;9058;52.018;4.202;2023-06-22T14:19:25;16.35;;;14.10;;
17864;SDS011;9058;52.018;4.202;2023-06-22T14:21:53;14.43;;;13.05;;
17864;SDS011;9058;52.018;4.202;2023-06-22T14:24:20;14.30;;;12.82;;
17864;SDS011;9058;52.018;4.202;2023-06-22T14:26:47;18.33;;;13.68;;
17864;SDS011;9058;52.018;4.202;2023-06-22T14:29:13;17.25;;;13.80;;
17864;SDS011;9058;52.018;4.202;2023-06-22T14:31:40;17.88;;;14.35;;
17864;SDS011;9058;52.018;4.202;2023-06-22T14:34:07;17.17;;;14.32;;
17864;SDS011;9058;52.018;4.202;2023-06-22T14:36:35;15.70;;;14.10;;
17864;SDS011;9058;52.018;4.202;2023-06-22T14:39:04;17.80;;;13.55;;